Time;durP1;ratioP1;P1;durP2;ratioP2;P2;SDS_P1;SDS_P2;PMS_P1;PMS_P2;Temp;Humidity;BMP_temperature;BMP_pressure;BME280_temperature;BME280_humidity;BME280_pressure;Samples;Min_cycle;Max_cycle;Signal;HPM_P1;HPM_P2
2022/11/24 00:00:45;;;;;;;4.70;2.15;;;;;;;20.02;65.06;97898.19;2068908;28;20142;-50
2022/11/24 00:01:46;;;;;;;;;;;;;;;19.95;65.30;97895.63;2072730;28;20060;-45
2022/11/24 00:02:47;;;;;;;6.38;2.53;;;;;;;19.99;65.54;97896.78;2069003;28;20036;-49
2022/11/24 00:03:53;;;;;;;5.65;2.80;;;;;;;20.05;65.02;97893.16;2070715;28;20963;-50
2022/11/24 00:04:54;;;;;;;2.72;2.03;;;;;;;20.07;65.42;97899.16;2070541;28;20334;-48
2022/11/24 00:05:55;;;;;;;;;;;;;;;20.00;65.32;97898.44;2069627;28;20045;-46
2022/11/24 00:06:58;;;;;;;5.15;2.40;;;;;;;20.04;64.98;97907.69;2069862;28;19994;-46
2022/11/24 00:07:59;;;;;;;5.28;2.08;;;;;;;20.06;65.10;97907.47;2066968;28;20106;-48
2022/11/24 00:09:01;;;;;;;;;;;;;;;19.98;65.38;97905.09;2071197;28;20130;-47
2022/11/24 00:10:03;;;;;;;3.58;1.58;;;;;;;20.01;65.26;97910.03;2072279;28;20493;-49
2022/11/24 00:11:06;;;;;;;4.25;2.20;;;;;;;20.05;65.03;97903.13;2071182;28;20041;-49
2022/11/24 00:12:08;;;;;;;8.32;2.15;;;;;;;20.06;65.14;97912.84;2060902;28;20160;-48
2022/11/24 00:13:09;;;;;;;2.55;1.83;;;;;;;20.08;64.93;97913.41;2069843;28;20048;-44
2022/11/24 00:14:11;;;;;;;;;;;;;;;19.99;65.21;97909.44;2072797;28;20053;-47
2022/11/24 00:15:12;;;;;;;4.57;2.17;;;;;;;19.99;65.45;97912.13;2070653;28;19929;-46
2022/11/24 00:16:14;;;;;;;;;;;;;;;19.93;65.49;97911.16;2067206;28;20111;-47
2022/11/24 00:17:14;;;;;;;5.13;2.58;;;;;;;19.97;65.54;97908.84;2068448;28;20369;-45
2022/11/24 00:18:16;;;;;;;;;;;;;;;19.90;65.85;97910.81;2066936;28;20144;-47
2022/11/24 00:19:17;;;;;;;2.90;1.95;;;;;;;19.93;65.61;97913.03;2071525;28;20706;-45
2022/11/24 00:20:18;;;;;;;2.63;1.90;;;;;;;19.97;65.86;97912.34;2069399;28;20053;-47
2022/11/24 00:21:20;;;;;;;7.25;2.35;;;;;;;20.00;65.63;97902.97;2068394;28;20049;-46
2022/11/24 00:22:23;;;;;;;9.02;2.92;;;;;;;19.97;65.78;97906.94;2066306;28;20048;-48
2022/11/24 00:23:24;;;;;;;4.57;2.15;;;;;;;19.97;65.31;97903.44;2070094;28;20056;-48
2022/11/24 00:24:25;;;;;;;;;;;;;;;19.89;65.57;97904.59;2069828;28;20125;-49
2022/11/24 00:25:26;;;;;;;9.88;2.10;;;;;;;19.91;65.68;97909.75;2070346;28;20232;-48
2022/11/24 00:26:29;;;;;;;;;;;;;;;19.86;65.73;97903.19;2067686;28;20049;-47
2022/11/24 00:27:29;;;;;;;5.15;2.55;;;;;;;19.91;65.68;97901.69;2068967;28;19971;-49
2022/11/24 00:28:32;;;;;;;;;;;;;;;19.83;66.05;97908.19;2072702;28;20622;-48
2022/11/24 00:29:33;;;;;;;7.30;2.30;;;;;;;19.86;65.75;97903.19;2072753;28;20006;-48
2022/11/24 00:30:34;;;;;;;6.47;2.03;;;;;;;19.92;65.34;97901.47;2069437;28;20285;-46
2022/11/24 00:31:36;;;;;;;;;;;;;;;19.82;65.67;97906.56;2072979;28;20057;-47
2022/11/24 00:32:37;;;;;;;3.70;1.88;;;;;;;19.86;66.10;97910.44;2075188;28;19974;-46
2022/11/24 00:33:38;;;;;;;;;;;;;;;19.80;65.75;97909.47;2073193;28;20111;-49
2022/11/24 00:34:40;;;;;;;4.93;2.38;;;;;;;19.82;65.47;97909.25;2069005;28;19933;-47
2022/11/24 00:35:42;;;;;;;5.88;2.20;;;;;;;19.86;65.73;97911.28;2068984;28;20119;-46
2022/11/24 00:36:44;;;;;;;5.45;2.10;;;;;;;19.86;65.56;97913.97;2068837;28;20099;-47
2022/11/24 00:37:46;;;;;;;2.53;1.77;;;;;;;19.89;65.46;97915.34;2070091;28;20078;-49
2022/11/24 00:38:48;;;;;;;6.40;1.98;;;;;;;19.90;65.47;97914.31;2069872;28;20140;-50
2022/11/24 00:39:48;;;;;;;4.88;2.40;;;;;;;19.91;65.46;97915.13;2070698;28;20110;-49
2022/11/24 00:40:50;;;;;;;;;;;;;;;19.80;65.49;97911.34;2070682;28;20126;-48
2022/11/24 00:41:50;;;;;;;;;;;;;;;19.72;65.62;97922.44;2069941;28;19933;-47
2022/11/24 00:42:52;;;;;;;6.33;2.87;;;;;;;19.76;65.86;97924.44;2067486;28;19921;-49
2022/11/24 00:43:53;;;;;;;9.35;3.35;;;;;;;19.80;65.59;97925.63;2078956;28;20042;-50
2022/11/24 00:44:55;;;;;;;;;;;;;;;19.74;65.43;97923.84;2082459;28;20133;-45
2022/11/24 00:45:55;;;;;;;3.58;1.90;;;;;;;19.77;65.54;97925.28;2077696;28;19920;-49
2022/11/24 00:46:57;;;;;;;;;;;;;;;19.71;65.93;97928.88;2078452;28;20095;-45
2022/11/24 00:47:57;;;;;;;;;;;;;;;19.65;65.96;97925.19;2078089;28;19924;-46
2022/11/24 00:49:00;;;;;;;5.20;2.27;;;;;;;19.71;65.90;97927.00;2076242;28;19928;-48
2022/11/24 00:50:01;;;;;;;6.57;2.30;;;;;;;19.75;65.61;97925.50;2072162;28;20393;-46
2022/11/24 00:51:03;;;;;;;;;;;;;;;19.71;65.57;97928.88;2072284;28;20053;-46
2022/11/24 00:52:04;;;;;;;6.35;2.00;;;;;;;19.77;65.50;97930.66;2078227;28;20007;-49
2022/11/24 00:53:07;;;;;;;;;;;;;;;19.70;65.34;97935.31;2079290;28;20053;-48
2022/11/24 00:54:07;;;;;;;3.00;2.55;;;;;;;19.74;65.02;97931.09;2078212;28;20319;-44
2022/11/24 00:55:09;;;;;;;;;;;;;;;19.67;65.53;97939.28;2078853;28;20061;-47
2022/11/24 00:56:11;;;;;;;9.70;2.33;;;;;;;19.68;65.93;97937.41;2079902;28;19928;-45
2022/11/24 00:57:12;;;;;;;3.80;1.80;;;;;;;19.75;65.43;97940.81;2079229;28;20053;-46
2022/11/24 00:58:13;;;;;;;5.47;2.17;;;;;;;19.75;65.25;97944.34;2080327;28;20049;-47
2022/11/24 00:59:14;;;;;;;;;;;;;;;19.70;65.47;97936.13;2079099;28;20046;-45
2022/11/24 01:00:16;;;;;;;3.72;1.75;;;;;;;19.71;65.69;97940.44;2077610;28;19978;-44
2022/11/24 01:01:20;;;;;;;4.68;2.15;;;;;;;19.73;65.50;97949.13;2081591;28;20041;-46
2022/11/24 01:02:20;;;;;;;3.72;1.92;;;;;;;19.73;65.48;97948.31;2078739;28;20045;-47
2022/11/24 01:03:22;;;;;;;;;;;;;;;19.64;65.57;97945.91;2077670;28;20049;-46
2022/11/24 01:04:22;;;;;;;3.60;2.30;;;;;;;19.68;65.47;97950.84;2068898;28;20011;-46
2022/11/24 01:05:24;;;;;;;;;;;;;;;19.62;65.70;97955.25;2069807;28;20495;-48
2022/11/24 01:06:25;;;;;;;6.47;2.13;;;;;;;19.66;65.33;97950.25;2074159;28;19964;-45
2022/11/24 01:07:27;;;;;;;5.68;2.10;;;;;;;19.69;65.31;97950.63;2070821;28;20052;-44
2022/11/24 01:08:29;;;;;;;3.78;2.33;;;;;;;19.72;65.12;97960.91;2069711;28;20054;-49
2022/11/24 01:09:31;;;;;;;6.53;2.17;;;;;;;19.74;65.30;97952.63;2068710;28;20568;-49
2022/11/24 01:10:32;;;;;;;3.53;2.50;;;;;;;19.71;65.03;97961.97;2069112;28;20114;-49
2022/11/24 01:12:51;;;;;;;5.57;2.22;;;;;;;19.72;65.13;97955.53;2074451;28;20172;-46
2022/11/24 01:13:53;;;;;;;3.70;1.92;;;;;;;19.73;64.95;97967.97;2079346;28;20045;-47
2022/11/24 01:14:55;;;;;;;4.50;2.38;;;;;;;19.75;65.26;97967.72;2081685;28;20049;-45
2022/11/24 01:15:55;;;;;;;4.38;2.78;;;;;;;19.73;64.85;97976.03;2077889;28;20063;-46
2022/11/24 01:16:57;;;;;;;;;;;;;;;19.62;65.23;97972.19;2079030;28;20050;-49
2022/11/24 01:17:58;;;;;;;;;;;;;;;19.53;65.44;97983.47;2077635;28;20347;-47
2022/11/24 01:19:00;;;;;;;2.70;2.00;;;;;;;19.58;65.42;97981.75;2082463;28;19932;-47
2022/11/24 01:20:01;;;;;;;6.05;2.42;;;;;;;19.63;65.54;97989.16;2077225;28;20061;-46
2022/11/24 01:21:05;;;;;;;3.10;1.75;;;;;;;19.63;65.23;97984.59;2077480;28;20049;-46
2022/11/24 01:22:06;;;;;;;2.92;1.92;;;;;;;19.67;64.92;97992.25;2077151;28;20049;-47
2022/11/24 01:23:07;;;;;;;13.07;2.40;;;;;;;19.67;64.85;97993.09;2080102;28;20101;-48
2022/11/24 01:24:11;;;;;;;;;;;;;;;19.58;65.05;97991.69;2078179;28;20746;-44
2022/11/24 01:25:11;;;;;;;5.18;2.30;;;;;;;19.60;65.58;97995.00;2077213;28;20389;-51
2022/11/24 01:26:14;;;;;;;;;;;;;;;19.52;65.65;97995.28;2083544;28;20102;-44
2022/11/24 01:27:15;;;;;;;5.93;1.77;;;;;;;19.56;65.59;97991.94;2079465;28;19986;-45
2022/11/24 01:28:16;;;;;;;;;;;;;;;19.49;65.77;97995.75;2078424;28;20041;-50
2022/11/24 01:29:18;;;;;;;5.28;2.20;;;;;;;19.51;65.65;97996.34;2079136;28;19925;-47
2022/11/24 01:30:20;;;;;;;3.50;1.70;;;;;;;19.55;65.23;98011.78;2078649;28;20291;-50
2022/11/24 01:31:23;;;;;;;6.03;2.10;;;;;;;19.59;65.44;98010.31;2079754;28;20049;-47
2022/11/24 01:32:24;;;;;;;3.60;2.05;;;;;;;19.60;65.35;98005.75;2081259;28;20053;-46
2022/11/24 01:33:26;;;;;;;;;;;;;;;19.47;65.40;98011.28;2078111;28;20045;-48
2022/11/24 01:34:26;;;;;;;3.88;1.77;;;;;;;19.50;65.75;98005.44;2079570;28;19928;-53
2022/11/24 01:35:28;;;;;;;5.20;1.90;;;;;;;19.55;65.23;97997.53;2077587;28;20073;-46
2022/11/24 01:36:32;;;;;;;3.55;1.92;;;;;;;19.56;65.16;98010.75;2078359;28;20044;-49
2022/11/24 01:37:34;;;;;;;4.07;1.95;;;;;;;19.57;65.40;98006.19;2077620;28;20114;-47
2022/11/24 01:38:34;;;;;;;4.63;2.15;;;;;;;19.57;65.11;98004.34;2078001;28;20045;-46
2022/11/24 01:39:37;;;;;;;;;;;;;;;19.45;65.70;98002.63;2080136;28;20102;-47
2022/11/24 01:40:38;;;;;;;3.60;1.48;;;;;;;19.48;65.60;98012.94;2077140;28;19929;-47
2022/11/24 01:41:40;;;;;;;;;;;;;;;19.39;65.79;98005.16;2079253;28;20756;-47
2022/11/24 01:42:46;;;;;;;4.22;1.80;;;;;;;19.45;65.35;98002.63;2078977;28;19924;-49
2022/11/24 01:43:49;;;;;;;2.55;2.10;;;;;;;19.49;65.68;98001.94;2070663;28;20072;-49
2022/11/24 01:45:11;;;;;;;3.83;1.83;;;;;;;19.51;65.29;98001.72;2070702;28;20145;-49
2022/11/24 01:46:19;;;;;;;2.55;1.92;;;;;;;19.49;65.31;98014.56;2071013;28;20780;-47
2022/11/24 01:47:31;;;;;;;3.70;1.90;;;;;;;19.49;64.97;98018.06;2072349;28;20110;-50
2022/11/24 01:48:39;;;;;;;3.65;2.05;;;;;;;19.50;65.56;98011.69;2069783;28;20046;-48
2022/11/24 01:49:44;;;;;;;4.97;1.95;;;;;;;19.51;65.30;98013.31;2067574;28;20158;-46
2022/11/24 01:50:47;;;;;;;4.35;2.58;;;;;;;19.50;64.98;98016.22;2070559;28;20046;-46
2022/11/24 01:51:52;;;;;;;2.95;1.73;;;;;;;19.50;65.29;98016.22;2070755;28;20128;-48
2022/11/24 01:52:56;;;;;;;6.82;2.08;;;;;;;19.49;65.14;98020.78;2069684;28;20052;-52
2022/11/24 01:54:01;;;;;;;2.72;2.13;;;;;;;19.49;65.45;98017.25;2070015;28;20053;-46
2022/11/24 01:55:08;;;;;;;5.75;2.40;;;;;;;19.49;65.22;98019.94;2069485;28;20077;-47
2022/11/24 01:56:11;;;;;;;3.13;2.00;;;;;;;19.48;65.03;98012.94;2071809;28;20055;-47
2022/11/24 01:57:17;;;;;;;2.95;2.00;;;;;;;19.47;65.17;98022.03;2069893;28;20132;-45
2022/11/24 01:58:22;;;;;;;3.47;2.10;;;;;;;19.46;65.20;98017.72;2071840;28;20114;-51
2022/11/24 01:59:25;;;;;;;4.43;2.10;;;;;;;19.46;65.18;98015.84;2070228;28;20094;-47
2022/11/24 02:00:26;;;;;;;8.13;1.98;;;;;;;19.47;65.21;98016.66;2071707;28;20057;-49
2022/11/24 02:01:30;;;;;;;;;;;;;;;19.32;65.50;98025.91;2069208;28;20060;-46
2022/11/24 02:02:30;;;;;;;2.40;1.88;;;;;;;19.34;65.54;98023.84;2072845;28;19936;-48
2022/11/24 02:03:35;;;;;;;;;;;;;;;19.25;66.10;98022.50;2071388;28;20130;-45
2022/11/24 02:04:37;;;;;;;1.98;1.73;;;;;;;19.31;65.65;98032.34;2070769;28;19924;-49
2022/11/24 02:05:45;;;;;;;3.53;1.83;;;;;;;19.35;65.45;98030.84;2072978;28;20130;-48
2022/11/24 02:06:47;;;;;;;1.80;1.48;;;;;;;19.38;65.35;98025.03;2072096;28;20049;-49
2022/11/24 02:07:49;;;;;;;3.20;2.53;;;;;;;19.37;65.41;98022.56;2070282;28;26595;-49
2022/11/24 02:08:57;;;;;;;4.47;1.75;;;;;;;19.38;64.88;98025.03;2070233;28;20053;-46
2022/11/24 02:10:03;;;;;;;6.63;2.22;;;;;;;19.37;65.34;98023.38;2069151;28;20052;-46
2022/11/24 02:11:06;;;;;;;4.78;2.22;;;;;;;19.37;65.26;98022.56;2070110;28;20060;-51
2022/11/24 02:12:09;;;;;;;6.18;1.75;;;;;;;19.35;65.49;98025.47;2072294;28;20052;-50
2022/11/24 02:13:10;;;;;;;3.08;2.13;;;;;;;19.35;65.43;98020.09;2074062;28;20052;-47
2022/11/24 02:14:13;;;;;;;;;;;;;;;19.25;65.93;98024.34;2068654;28;20049;-44
2022/11/24 02:15:15;;;;;;;2.85;1.65;;;;;;;19.26;65.91;98024.13;2075082;28;20793;-44
2022/11/24 02:16:17;;;;;;;4.00;2.33;;;;;;;19.31;65.52;98026.16;2067842;28;20131;-45
2022/11/24 02:17:18;;;;;;;6.40;2.05;;;;;;;19.33;65.64;98019.47;2072794;28;20056;-46
2022/11/24 02:18:19;;;;;;;;;;;;;;;19.21;65.77;98026.66;2073959;28;20110;-46
2022/11/24 02:19:33;;;;;;;3.47;2.47;;;;;;;19.24;65.83;98023.50;2067274;28;22093;-49
2022/11/24 02:20:35;;;;;;;5.03;2.17;;;;;;;19.28;65.43;98024.72;2070315;28;20056;-46
2022/11/24 02:21:36;;;;;;;4.65;2.25;;;;;;;19.31;65.56;98023.47;2071769;28;20063;-48
2022/11/24 02:22:44;;;;;;;;;;;;;;;19.18;66.15;98027.91;2074013;28;20059;-47
2022/11/24 02:23:52;;;;;;;3.33;1.80;;;;;;;19.22;66.01;98024.78;2069666;28;19932;-52
2022/11/24 02:24:58;;;;;;;4.32;2.55;;;;;;;19.23;66.12;98035.31;2068307;28;20057;-47
2022/11/24 02:26:10;;;;;;;12.57;2.00;;;;;;;19.25;65.65;98033.25;2072192;28;20053;-44
2022/11/24 02:27:13;;;;;;;5.55;2.13;;;;;;;19.25;66.03;98030.56;2069957;28;21124;-45
2022/11/24 02:35:46;;;;;;;3.97;1.73;;;;;;;19.09;66.08;98029.25;2052495;28;20042;-51
2022/11/24 02:36:47;;;;;;;4.20;2.33;;;;;;;19.16;66.27;98026.50;2051387;28;20042;-44
2022/11/24 02:37:49;;;;;;;;;;;;;;;19.10;66.25;98033.56;2068500;28;20140;-45
2022/11/24 02:38:49;;;;;;;2.08;1.30;;;;;;;19.11;66.16;98032.56;2077297;28;19925;-47
2022/11/24 02:39:51;;;;;;;;;;;;;;;19.06;66.81;98036.94;2070164;28;20824;-46
2022/11/24 02:40:52;;;;;;;6.28;1.80;;;;;;;19.13;66.44;98037.69;2070193;28;21008;-46
2022/11/24 02:41:54;;;;;;;;;;;;;;;19.00;66.54;98035.97;2074518;28;20057;-45
2022/11/24 02:43:04;;;;;;;2.42;1.80;;;;;;;19.10;66.32;98033.56;2073526;28;20379;-45
2022/11/24 02:44:06;;;;;;;2.30;1.92;;;;;;;19.12;66.27;98046.81;2076377;28;20134;-48
2022/11/24 02:45:10;;;;;;;3.85;2.05;;;;;;;19.18;66.34;98044.03;2077539;28;20049;-46
2022/11/24 02:46:12;;;;;;;4.70;2.08;;;;;;;19.17;66.15;98041.59;2075724;28;20096;-48
2022/11/24 02:47:13;;;;;;;4.13;1.83;;;;;;;19.19;66.26;98044.88;2078940;28;20045;-47
2022/11/24 02:48:14;;;;;;;;;;;;;;;19.08;66.23;98043.72;2074798;28;20768;-45
2022/11/24 02:49:15;;;;;;;4.32;1.90;;;;;;;19.12;66.49;98053.00;2077154;28;19936;-46
2022/11/24 02:50:17;;;;;;;;;;;;;;;19.02;66.59;98047.28;2078506;28;20128;-45
2022/11/24 02:51:18;;;;;;;6.07;1.92;;;;;;;19.10;66.28;98048.88;2077113;28;19929;-47
2022/11/24 02:52:20;;;;;;;2.67;1.90;;;;;;;19.12;66.29;98047.63;2074332;28;20049;-47
2022/11/24 02:53:21;;;;;;;2.35;1.73;;;;;;;19.15;66.06;98041.00;2077934;28;20045;-49
2022/11/24 02:54:22;;;;;;;;;;;;;;;19.03;66.55;98045.41;2076303;28;20056;-47
2022/11/24 02:55:23;;;;;;;5.65;2.45;;;;;;;19.05;66.60;98056.78;2077947;28;19931;-47
2022/11/24 02:56:25;;;;;;;;;;;;;;;18.98;66.41;98046.91;2074773;28;20619;-47
2022/11/24 02:57:26;;;;;;;5.00;2.00;;;;;;;19.03;66.58;98053.47;2078760;28;20092;-47
2022/11/24 02:58:29;;;;;;;;;;;;;;;18.96;66.63;98059.75;2077289;28;20654;-47
2022/11/24 02:59:30;;;;;;;2.97;1.85;;;;;;;19.02;66.58;98051.84;2072701;28;21190;-47
2022/11/24 03:00:32;;;;;;;4.65;2.35;;;;;;;19.08;66.21;98051.78;2068281;28;20057;-46
2022/11/24 03:01:33;;;;;;;3.17;1.77;;;;;;;19.10;66.08;98049.69;2075657;28;20045;-47
2022/11/24 03:02:35;;;;;;;;;;;;;;;19.00;66.25;98056.63;2072644;28;20053;-47
2022/11/24 03:03:36;;;;;;;5.18;2.17;;;;;;;19.02;66.54;98058.03;2061028;28;19987;-46
2022/11/24 03:04:38;;;;;;;4.03;1.73;;;;;;;19.05;66.48;98052.22;2070288;28;20140;-46
2022/11/24 03:05:38;;;;;;;5.35;2.35;;;;;;;19.08;65.91;98048.28;2070735;28;20650;-48
2022/11/24 03:06:41;;;;;;;;;;;;;;;19.00;66.48;98054.78;2067279;28;20041;-46
2022/11/24 03:07:41;;;;;;;2.90;1.58;;;;;;;19.03;66.22;98058.84;2070883;28;19967;-47
2022/11/24 03:08:43;;;;;;;;;;;;;;;18.89;66.54;98050.94;2069400;28;20045;-46
2022/11/24 03:09:44;;;;;;;2.70;1.85;;;;;;;18.93;66.25;98046.75;2071596;28;19965;-46
2022/11/24 03:10:46;;;;;;;;;;;;;;;18.88;66.53;98051.97;2069081;28;20068;-45
2022/11/24 03:11:47;;;;;;;4.15;2.45;;;;;;;18.95;66.59;98049.22;2070190;28;20044;-47
2022/11/24 03:12:48;;;;;;;;;;;;;;;18.89;66.40;98042.06;2074075;28;20160;-47
2022/11/24 03:13:50;;;;;;;;;;;;;;;18.82;66.60;98047.47;2077351;28;19928;-48
2022/11/24 03:14:52;;;;;;;2.90;1.92;;;;;;;18.90;66.34;98052.56;2075331;28;19925;-48
2022/11/24 03:15:53;;;;;;;5.68;2.17;;;;;;;18.95;66.39;98046.53;2075216;28;20417;-46
2022/11/24 03:16:54;;;;;;;;;;;;;;;18.89;66.41;98060.88;2074523;28;20064;-46
2022/11/24 03:17:55;;;;;;;;;;;;;;;18.83;66.61;98050.97;2077575;28;19925;-48
2022/11/24 03:18:57;;;;;;;2.28;1.65;;;;;;;18.88;66.36;98051.97;2076461;28;20364;-47
2022/11/24 03:19:59;;;;;;;3.20;1.65;;;;;;;18.92;66.33;98050.50;2076091;28;20053;-46
2022/11/24 03:21:01;;;;;;;5.68;2.00;;;;;;;18.94;66.36;98056.47;2074433;28;20168;-47
2022/11/24 03:22:02;;;;;;;3.72;1.60;;;;;;;18.97;66.08;98056.03;2078564;28;20056;-46
2022/11/24 03:23:04;;;;;;;;;;;;;;;18.89;66.35;98053.63;2075968;28;20064;-46
2022/11/24 03:24:05;;;;;;;2.83;2.08;;;;;;;18.90;66.61;98054.44;2076300;28;19947;-46
2022/11/24 03:25:06;;;;;;;;;;;;;;;18.85;66.85;98052.41;2077198;28;20385;-50
2022/11/24 03:26:08;;;;;;;7.38;1.88;;;;;;;18.86;66.19;98046.00;2076073;28;20303;-46
2022/11/24 03:27:10;;;;;;;4.10;1.88;;;;;;;18.90;66.49;98047.19;2076347;28;20045;-45
2022/11/24 03:28:11;;;;;;;4.13;1.67;;;;;;;18.94;66.08;98047.56;2080991;28;20049;-45
2022/11/24 03:29:14;;;;;;;;;;;;;;;18.86;66.27;98048.69;2078582;28;20138;-45
2022/11/24 03:30:15;;;;;;;3.60;1.33;;;;;;;18.89;66.07;98042.88;2076988;28;21230;-45
2022/11/24 03:31:17;;;;;;;5.88;2.22;;;;;;;18.89;66.58;98042.06;2076548;28;20075;-45
2022/11/24 03:32:18;;;;;;;6.22;2.35;;;;;;;18.92;66.18;98050.50;2075272;28;20067;-46
2022/11/24 03:33:20;;;;;;;;;;;;;;;18.83;66.20;98041.03;2077596;28;20057;-46
2022/11/24 03:34:20;;;;;;;7.68;1.95;;;;;;;18.87;66.42;98041.44;2073725;28;19936;-46
2022/11/24 03:35:22;;;;;;;;;;;;;;;18.80;66.26;98046.84;2077324;28;21115;-46
2022/11/24 03:36:23;;;;;;;4.72;1.75;;;;;;;18.81;66.86;98055.75;2074465;28;19932;-46
2022/11/24 03:37:24;;;;;;;;;;;;;;;18.73;66.42;98054.13;2078134;28;20049;-45
2022/11/24 03:38:25;;;;;;;;;;;;;;;18.70;66.97;98054.56;2075988;28;20816;-48
2022/11/24 03:39:27;;;;;;;2.92;1.38;;;;;;;18.78;66.72;98058.84;2078057;28;19929;-45
2022/11/24 03:40:28;;;;;;;2.15;1.75;;;;;;;18.85;66.27;98067.72;2075800;28;20079;-48
2022/11/24 03:41:29;;;;;;;;;;;;;;;18.78;66.87;98066.91;2077596;28;20049;-45
2022/11/24 03:42:30;;;;;;;4.28;2.10;;;;;;;18.77;66.32;98059.91;2076238;28;19929;-45
2022/11/24 03:43:32;;;;;;;;;;;;;;;18.72;66.46;98057.84;2072360;28;20051;-46
2022/11/24 03:44:34;;;;;;;2.55;1.35;;;;;;;18.76;66.59;98056.41;2071959;28;19924;-45
2022/11/24 03:45:36;;;;;;;5.60;2.10;;;;;;;18.81;66.32;98064.63;2070611;28;20052;-48
2022/11/24 03:46:37;;;;;;;3.90;2.13;;;;;;;18.83;66.00;98059.84;2067882;28;20049;-46
2022/11/24 03:47:38;;;;;;;;;;;;;;;18.75;66.15;98062.84;2068176;28;20045;-46
2022/11/24 03:48:39;;;;;;;;;;;;;;;18.66;66.53;98056.84;2070049;28;19933;-47
2022/11/24 03:49:41;;;;;;;5.77;2.60;;;;;;;18.72;66.69;98057.84;2069772;28;20820;-46
2022/11/24 03:50:42;;;;;;;2.88;1.50;;;;;;;18.77;66.33;98060.72;2067588;28;22869;-47
2022/11/24 03:51:44;;;;;;;4.28;1.77;;;;;;;18.81;66.16;98061.94;2071025;28;20049;-46
2022/11/24 03:52:45;;;;;;;4.20;1.85;;;;;;;18.83;66.13;98059.03;2071054;28;20053;-45
2022/11/24 03:53:46;;;;;;;;;;;;;;;18.75;66.17;98057.47;2073406;28;20088;-47
2022/11/24 03:54:47;;;;;;;1.95;1.48;;;;;;;18.76;66.42;98059.09;2068644;28;19928;-45
2022/11/24 03:55:49;;;;;;;3.35;1.90;;;;;;;18.81;66.32;98058.44;2069511;28;20496;-49
2022/11/24 03:56:50;;;;;;;3.20;1.48;;;;;;;18.78;66.52;98065.09;2069243;28;20049;-46
2022/11/24 03:57:51;;;;;;;;;;;;;;;18.68;66.47;98068.22;2070488;28;20744;-45
2022/11/24 03:58:52;;;;;;;;;;;;;;;18.61;66.71;98070.13;2069940;28;19932;-45
2022/11/24 03:59:55;;;;;;;2.47;1.43;;;;;;;18.70;66.29;98070.69;2069963;28;20396;-44
2022/11/24 04:00:56;;;;;;;2.65;1.50;;;;;;;18.72;66.46;98060.53;2067981;28;20312;-46
2022/11/24 04:01:58;;;;;;;4.57;1.88;;;;;;;18.78;66.17;98066.91;2067233;28;20064;-47
2022/11/24 04:02:59;;;;;;;3.72;1.95;;;;;;;18.80;66.03;98065.66;2068924;28;20045;-46
2022/11/24 04:04:01;;;;;;;;;;;;;;;18.69;66.35;98069.88;2072575;28;20064;-47
2022/11/24 04:05:01;;;;;;;;;;;;;;;18.59;66.93;98072.19;2075512;28;19929;-47
2022/11/24 04:06:03;;;;;;;2.10;1.75;;;;;;;18.66;66.79;98074.84;2073342;28;19929;-46
2022/11/24 04:07:04;;;;;;;3.85;1.92;;;;;;;18.71;66.68;98073.13;2072171;28;20052;-46
2022/11/24 04:08:06;;;;;;;;;;;;;;;18.65;66.64;98068.66;2071326;28;20063;-45
2022/11/24 04:09:07;;;;;;;4.13;2.15;;;;;;;18.69;66.38;98064.50;2073186;28;19925;-45
2022/11/24 04:10:08;;;;;;;;;;;;;;;18.66;66.69;98072.97;2073742;28;20431;-46
2022/11/24 04:12:42;;;;;;;;;;;;;;;18.57;66.97;98076.97;2068750;28;19924;-46
2022/11/24 04:12:45;;;;;;;4.85;2.30;;;;;;;18.64;66.63;98074.25;2072225;28;20060;-45
2022/11/24 04:13:47;;;;;;;2.90;1.75;;;;;;;18.69;66.71;98086.00;2072231;28;20048;-46
2022/11/24 04:14:48;;;;;;;6.63;1.38;;;;;;;18.73;66.32;98079.13;2072883;28;20101;-46
2022/11/24 04:15:51;;;;;;;;;;;;;;;18.64;66.78;98091.19;2070773;28;20107;-47
2022/11/24 04:16:52;;;;;;;2.13;1.70;;;;;;;18.67;66.52;98082.69;2069780;28;19924;-45
2022/11/24 04:17:54;;;;;;;;;;;;;;;18.61;66.86;98098.81;2075035;28;20404;-45
2022/11/24 04:18:55;;;;;;;10.07;1.63;;;;;;;18.66;66.55;98082.88;2068474;28;20594;-46
2022/11/24 04:19:57;;;;;;;;;;;;;;;18.58;66.75;98093.91;2076068;28;20049;-46
2022/11/24 04:20:58;;;;;;;5.47;2.25;;;;;;;18.65;66.95;98094.69;2071625;28;19925;-46
2022/11/24 04:21:59;;;;;;;;;;;;;;;18.57;66.71;98100.31;2073891;28;20055;-46
2022/11/24 04:23:00;;;;;;;;;;;;;;;18.49;67.09;98099.53;2071042;28;20080;-46
2022/11/24 04:24:02;;;;;;;2.05;1.60;;;;;;;18.56;66.96;98104.88;2071204;28;20483;-47
2022/11/24 04:25:04;;;;;;;2.28;1.70;;;;;;;18.62;66.77;98103.19;2071056;28;20438;-46
2022/11/24 04:26:06;;;;;;;4.55;2.13;;;;;;;18.67;66.52;98109.56;2071251;28;20085;-46
2022/11/24 04:27:07;;;;;;;4.05;2.20;;;;;;;18.68;66.40;98107.69;2068767;28;20049;-45
2022/11/24 04:28:09;;;;;;;;;;;;;;;18.60;66.63;98113.31;2071072;28;20522;-45
2022/11/24 04:29:10;;;;;;;3.53;1.88;;;;;;;18.63;66.76;98107.50;2068668;28;19925;-45
2022/11/24 04:30:12;;;;;;;;;;;;;;;18.56;66.78;98107.56;2072869;28;20604;-47
2022/11/24 04:31:14;;;;;;;3.58;1.20;;;;;;;18.59;66.82;98112.50;2071773;28;19925;-47
2022/11/24 04:32:16;;;;;;;5.53;1.85;;;;;;;18.64;66.54;98109.97;2072012;28;20045;-46
2022/11/24 04:33:17;;;;;;;2.92;2.10;;;;;;;18.67;66.57;98109.56;2072240;28;20057;-46
2022/11/24 04:34:18;;;;;;;;;;;;;;;18.60;66.96;98116.00;2070526;28;20055;-47
2022/11/24 04:35:20;;;;;;;3.25;1.35;;;;;;;18.59;67.02;98111.69;2072135;28;19925;-47
2022/11/24 04:36:22;;;;;;;2.47;1.42;;;;;;;18.61;66.49;98113.09;2071099;28;20138;-47
2022/11/24 04:37:23;;;;;;;4.60;1.88;;;;;;;18.66;66.65;98115.94;2069303;28;21070;-45
2022/11/24 04:38:24;;;;;;;;;;;;;;;18.58;66.57;98118.88;2073507;28;20052;-46
2022/11/24 04:39:25;;;;;;;4.22;1.65;;;;;;;18.60;66.61;98110.63;2070688;28;19920;-46
2022/11/24 04:40:27;;;;;;;;;;;;;;;18.53;66.88;98118.72;2072629;28;20079;-45
2022/11/24 04:41:27;;;;;;;;;;;;;;;18.46;67.13;98120.63;2071261;28;20697;-47
2022/11/24 04:42:29;;;;;;;2.30;1.73;;;;;;;18.52;67.17;98117.06;2071120;28;19925;-46
2022/11/24 04:43:31;;;;;;;2.55;1.75;;;;;;;18.56;66.49;98114.78;2077561;28;20303;-46
2022/11/24 04:44:33;;;;;;;2.63;2.30;;;;;;;18.61;66.39;98120.31;2079169;28;20056;-45
2022/11/24 04:45:33;;;;;;;3.42;2.13;;;;;;;18.62;66.38;98121.97;2079506;28;20512;-46
2022/11/24 04:46:36;;;;;;;;;;;;;;;18.51;66.66;98123.50;2077310;28;20053;-45
2022/11/24 04:47:37;;;;;;;3.80;2.28;;;;;;;18.53;66.77;98124.91;2077776;28;20516;-45
2022/11/24 04:48:39;;;;;;;;;;;;;;;18.47;66.51;98125.78;2078528;28;20049;-46
2022/11/24 04:49:39;;;;;;;;;;;;;;;18.40;67.25;98126.84;2079645;28;19932;-46
2022/11/24 04:50:41;;;;;;;2.90;1.90;;;;;;;18.44;66.87;98131.59;2079245;28;20300;-47
2022/11/24 04:51:42;;;;;;;2.20;1.60;;;;;;;18.51;66.70;98132.34;2074149;28;20405;-45
2022/11/24 04:52:44;;;;;;;;;;;;;;;18.45;66.82;98135.09;2078564;28;20048;-47
2022/11/24 04:53:46;;;;;;;;;;;;;;;18.39;67.07;98139.47;2081005;28;19932;-46
2022/11/24 04:54:49;;;;;;;1.90;1.65;;;;;;;18.46;67.09;98136.72;2079099;28;19935;-46
2022/11/24 04:55:50;;;;;;;2.17;1.98;;;;;;;18.53;66.62;98132.97;2077560;28;20063;-45
2022/11/24 04:56:52;;;;;;;;;;;;;;;18.46;66.68;98137.53;2079449;28;20041;-45
2022/11/24 04:57:52;;;;;;;5.05;2.55;;;;;;;18.49;66.74;98147.03;2069245;28;19928;-48
2022/11/24 04:58:54;;;;;;;;;;;;;;;18.44;66.64;98147.69;2070349;28;20508;-47
2022/11/24 04:59:55;;;;;;;2.45;1.73;;;;;;;18.48;66.64;98153.47;2073525;28;22275;-46
2022/11/24 05:00:56;;;;;;;;;;;;;;;18.41;67.12;98153.47;2070891;28;20057;-45
2022/11/24 05:01:58;;;;;;;;;;;;;;;18.32;67.04;98154.75;2072916;28;19929;-46
2022/11/24 05:03:00;;;;;;;1.40;1.27;;;;;;;18.41;67.05;98155.34;2071703;28;19982;-46
2022/11/24 05:04:01;;;;;;;2.42;1.67;;;;;;;18.47;66.61;98158.00;2069213;28;20060;-45
2022/11/24 05:05:02;;;;;;;;;;;;;;;18.42;66.83;98157.81;2071121;28;20521;-47
2022/11/24 05:06:04;;;;;;;6.97;1.80;;;;;;;18.52;66.75;98163.53;2071476;28;19947;-46
2022/11/24 05:07:06;;;;;;;2.53;1.52;;;;;;;18.57;66.55;98165.59;2074900;28;20848;-45
2022/11/24 05:08:07;;;;;;;4.63;1.65;;;;;;;18.64;66.19;98157.53;2069589;28;20145;-46
2022/11/24 05:09:14;;;;;;;5.18;1.48;;;;;;;18.63;66.45;98161.22;2069915;28;20099;-46
2022/11/24 05:10:33;;;;;;;2.90;1.80;;;;;;;18.62;66.61;98165.78;2072740;28;20050;-45